KHIE/HIE METAR and TAF weather

Enter ICAO airport designator
Station Type Date Time Source
KHIE METAR 2019/12/10 05:52 UTC NOAA

KHIE 100552Z AUTO 24005KT 10SM OVC028 09/07 A2954 RMK AO2 SLP012 60006 T00940072 10100 20028 50000


Station Type Date Time Source
KHIE Decoded METAR 2019/12/10 05:52 UTC NOAA

MT WASHINGTON REGIONAL AIRPORT , NH, United States (KHIE) 44-22N 71-33W 318M
Dec 10, 2019 - 12:52 AM EST / 2019.12.10 0552 UTC
Wind: from the WSW (240 degrees) at 6 MPH (5 KT):0
Visibility: 10 mile(s):0
Sky conditions: overcast
Temperature: 48.9 F (9.4 C)
Dew Point: 45.0 F (7.2 C)
Relative Humidity: 86%
Pressure (altimeter): 29.54 in. Hg (1000 hPa)
Pressure tendency: 0.00 inches (0.0 hPa) higher than three hours ago
ob: KHIE 100552Z AUTO 24005KT 10SM OVC028 09/07 A2954 RMK AO2 SLP012 60006 T00940072 10100 20028 50000
cycle: 6

Station Type Date Time Source
KHIE TAF 2019/12/10 06:42 UTC NOAA

TAF KHIE 100539Z 1006/1106 VRB04KT 6SM -SHRA BR OVC030 WS020/22035KT
FM101300 25007KT P6SM -SHRA BKN025 WS020/24040KT

Example: see airport list